Time;durP1;ratioP1;P1;durP2;ratioP2;P2;SDS_P1;SDS_P2;PMS_P1;PMS_P2;Temp;Humidity;BMP_temperature;BMP_pressure;BME280_temperature;BME280_humidity;BME280_pressure;Samples;Min_cycle;Max_cycle;Signal;HPM_P1;HPM_P2
2024/01/22 00:02:16;;;;;;;1.40;1.40;;;15.80;64.20;;;;;;5021901;28;44433;-70
2024/01/22 00:04:44;;;;;;;1.37;1.30;;;15.90;64.10;;;;;;5035416;28;43484;-70
2024/01/22 00:07:13;;;;;;;1.30;1.30;;;15.90;64.00;;;;;;5020294;28;43432;-70
2024/01/22 00:09:41;;;;;;;1.20;1.20;;;15.90;64.10;;;;;;5012209;28;44673;-77
2024/01/22 00:12:09;;;;;;;1.23;1.23;;;15.80;64.00;;;;;;5014464;28;43393;-79
2024/01/22 00:14:38;;;;;;;1.33;1.33;;;15.80;64.00;;;;;;5017929;28;44023;-78
2024/01/22 00:17:06;;;;;;;1.30;1.20;;;15.80;64.10;;;;;;5019567;28;43399;-78
2024/01/22 00:19:35;;;;;;;1.33;1.33;;;15.80;64.00;;;;;;5026980;28;44923;-75
2024/01/22 00:22:04;;;;;;;1.33;1.33;;;15.80;64.00;;;;;;5024167;28;44446;-77
2024/01/22 00:24:32;;;;;;;1.30;1.30;;;15.80;64.10;;;;;;5009746;28;44025;-76
2024/01/22 00:27:00;;;;;;;1.20;1.20;;;15.80;64.10;;;;;;5008430;28;43424;-78
2024/01/22 00:29:28;;;;;;;1.40;1.40;;;15.80;64.20;;;;;;5020838;28;44863;-77
2024/01/22 00:31:56;;;;;;;1.40;1.40;;;15.80;64.20;;;;;;5015377;28;45036;-76
2024/01/22 00:34:24;;;;;;;1.30;1.30;;;15.70;64.20;;;;;;5015826;28;43570;-74
2024/01/22 00:36:53;;;;;;;1.13;1.13;;;15.80;64.30;;;;;;5012400;28;43422;-79
2024/01/22 00:39:22;;;;;;;1.30;1.30;;;15.70;64.20;;;;;;5029017;28;45781;-77
2024/01/22 00:41:50;;;;;;;1.33;1.33;;;15.70;64.20;;;;;;5011453;28;43465;-76
2024/01/22 00:44:18;;;;;;;1.40;1.40;;;15.70;64.20;;;;;;5022492;28;43440;-76
2024/01/22 00:46:46;;;;;;;1.30;1.30;;;15.70;64.20;;;;;;5023116;28;43470;-77
2024/01/22 00:49:14;;;;;;;1.40;1.40;;;15.80;64.40;;;;;;5014198;28;45626;-73
2024/01/22 00:51:43;;;;;;;1.30;1.30;;;15.70;64.40;;;;;;5014926;28;43403;-74
2024/01/22 00:54:13;;;;;;;1.40;1.40;;;15.80;64.50;;;;;;5018432;28;43451;-74
2024/01/22 00:56:41;;;;;;;1.10;1.10;;;15.80;64.20;;;;;;5017536;28;43579;-74
2024/01/22 00:59:09;;;;;;;1.20;1.20;;;15.90;64.10;;;;;;5018266;28;43596;-73
2024/01/22 01:01:38;;;;;;;1.23;1.23;;;15.90;63.70;;;;;;5028848;28;43395;-73
2024/01/22 01:04:06;;;;;;;1.30;1.30;;;15.90;63.60;;;;;;5035665;28;43534;-74
2024/01/22 01:06:34;;;;;;;1.10;1.10;;;15.90;63.70;;;;;;5019763;28;43422;-75
2024/01/22 01:09:02;;;;;;;1.40;1.40;;;15.90;63.80;;;;;;5022988;28;45673;-74
2024/01/22 01:11:32;;;;;;;1.30;1.30;;;15.90;64.10;;;;;;5022982;28;43480;-76
2024/01/22 01:14:00;;;;;;;1.10;1.10;;;15.90;64.00;;;;;;5011267;28;43496;-75
2024/01/22 01:16:28;;;;;;;1.20;1.20;;;15.90;64.10;;;;;;5021685;28;43425;-76
2024/01/22 01:18:56;;;;;;;1.20;1.20;;;15.80;64.00;;;;;;5017142;28;45756;-73
2024/01/22 01:21:25;;;;;;;1.20;1.20;;;15.80;64.00;;;;;;5013793;28;43855;-76
2024/01/22 01:23:53;;;;;;;1.20;1.20;;;15.80;64.00;;;;;;5015856;28;43763;-73
2024/01/22 01:26:21;;;;;;;1.30;1.30;;;15.80;64.10;;;;;;5009849;28;43510;-73
2024/01/22 01:28:50;;;;;;;1.17;1.17;;;15.80;64.30;;;;;;5012364;28;43957;-74
2024/01/22 01:31:20;;;;;;;1.10;1.10;;;15.80;64.20;;;;;;5010812;28;45027;-74
2024/01/22 01:33:49;;;;;;;1.20;1.20;;;15.80;64.20;;;;;;5012908;28;43393;-73
2024/01/22 01:36:17;;;;;;;1.10;1.10;;;15.80;64.30;;;;;;5023462;28;43404;-74
2024/01/22 01:38:45;;;;;;;1.20;1.20;;;15.80;64.20;;;;;;5015357;28;46082;-73
2024/01/22 01:41:13;;;;;;;1.30;1.30;;;15.80;64.30;;;;;;5023553;28;43475;-73
2024/01/22 01:43:41;;;;;;;1.10;1.10;;;15.70;64.30;;;;;;5029751;28;43507;-74
2024/01/22 01:46:11;;;;;;;1.20;1.20;;;15.80;64.50;;;;;;5015013;28;43477;-74
2024/01/22 01:48:39;;;;;;;1.30;1.30;;;15.80;64.40;;;;;;5025709;28;45713;-74
2024/01/22 01:51:07;;;;;;;1.00;1.00;;;15.80;64.20;;;;;;5023741;28;43415;-73
2024/01/22 01:53:35;;;;;;;1.10;1.10;;;15.90;63.90;;;;;;5014459;28;43771;-74
2024/01/22 01:56:04;;;;;;;1.17;1.17;;;15.90;63.80;;;;;;5014852;28;43451;-74
2024/01/22 01:58:32;;;;;;;0.90;0.90;;;15.90;63.90;;;;;;5018651;28;45972;-72
2024/01/22 02:01:00;;;;;;;1.30;1.30;;;15.90;64.00;;;;;;5018381;28;44448;-71
2024/01/22 02:03:30;;;;;;;1.30;1.30;;;15.90;64.10;;;;;;5038029;28;43460;-70
2024/01/22 02:05:58;;;;;;;1.13;1.13;;;15.80;64.00;;;;;;5016209;28;43377;-72
2024/01/22 02:08:26;;;;;;;1.17;1.17;;;15.80;64.00;;;;;;5026167;28;46209;-74
2024/01/22 02:10:54;;;;;;;1.20;1.20;;;15.80;64.00;;;;;;5029576;28;44406;-69
2024/01/22 02:13:22;;;;;;;1.20;1.20;;;15.80;64.00;;;;;;5026736;28;43321;-71
2024/01/22 02:15:50;;;;;;;1.10;1.10;;;15.80;64.10;;;;;;5019651;28;43411;-70
2024/01/22 02:18:18;;;;;;;1.20;1.20;;;15.80;64.20;;;;;;5034990;28;43702;-70
2024/01/22 02:20:48;;;;;;;1.10;1.10;;;15.80;64.30;;;;;;5028108;28;44732;-71
2024/01/22 02:23:17;;;;;;;1.10;1.10;;;15.80;64.30;;;;;;5033069;28;43572;-69
2024/01/22 02:25:46;;;;;;;1.07;1.07;;;15.80;64.30;;;;;;5021839;28;43506;-72
2024/01/22 02:28:14;;;;;;;1.20;1.20;;;15.80;65.00;;;;;;5012932;28;43876;-71
2024/01/22 02:30:42;;;;;;;1.20;1.20;;;15.80;64.30;;;;;;5026102;28;44405;-70
2024/01/22 02:33:10;;;;;;;0.97;0.97;;;15.80;64.40;;;;;;5015782;28;43345;-71
2024/01/22 02:35:38;;;;;;;1.10;1.10;;;15.80;64.40;;;;;;5031593;28;43460;-70
2024/01/22 02:38:06;;;;;;;1.20;1.20;;;15.70;64.40;;;;;;5018899;28;43864;-71
2024/01/22 02:40:36;;;;;;;1.00;1.00;;;15.80;64.50;;;;;;5030249;28;43539;-72
2024/01/22 02:43:04;;;;;;;1.00;1.00;;;15.80;64.50;;;;;;5024381;28;43395;-69
2024/01/22 02:45:32;;;;;;;1.20;1.20;;;15.90;64.20;;;;;;5023479;28;43538;-71
2024/01/22 02:48:00;;;;;;;1.30;1.30;;;15.90;64.00;;;;;;5035101;28;45054;-70
2024/01/22 02:50:28;;;;;;;1.03;1.03;;;15.90;63.80;;;;;;5023188;28;45159;-71
2024/01/22 02:52:56;;;;;;;1.17;1.17;;;15.90;63.90;;;;;;5028764;28;43772;-70
2024/01/22 02:55:24;;;;;;;1.00;1.00;;;15.90;64.00;;;;;;5027864;28;43453;-71
2024/01/22 02:57:54;;;;;;;1.20;1.20;;;15.90;64.10;;;;;;5031432;28;43932;-71
2024/01/22 03:00:22;;;;;;;1.00;1.00;;;15.90;64.10;;;;;;5020774;28;44328;-71
2024/01/22 03:02:50;;;;;;;1.10;1.10;;;15.90;64.20;;;;;;5027440;28;44195;-70
2024/01/22 03:05:19;;;;;;;1.20;1.20;;;15.80;64.00;;;;;;5018981;28;43431;-72
2024/01/22 03:07:47;;;;;;;1.10;1.10;;;15.80;64.10;;;;;;5014389;28;43830;-71
2024/01/22 03:10:15;;;;;;;1.00;1.00;;;15.80;64.20;;;;;;5019977;28;44283;-74
2024/01/22 03:12:43;;;;;;;0.90;0.90;;;15.80;64.30;;;;;;5028742;28;43391;-74
2024/01/22 03:15:13;;;;;;;1.03;1.03;;;15.80;64.40;;;;;;5019670;28;43350;-73
2024/01/22 03:17:41;;;;;;;1.20;1.20;;;15.80;64.40;;;;;;5020065;28;43648;-74
2024/01/22 03:20:10;;;;;;;1.20;1.20;;;15.80;64.40;;;;;;5010734;28;43596;-73
2024/01/22 03:22:39;;;;;;;1.20;1.20;;;15.80;64.50;;;;;;5023039;28;43539;-74
2024/01/22 03:25:07;;;;;;;1.20;1.20;;;15.80;64.50;;;;;;5011282;28;43428;-74
2024/01/22 03:27:35;;;;;;;1.13;1.13;;;15.80;64.50;;;;;;5024113;28;43795;-74
2024/01/22 03:30:07;;;;;;;0.90;0.90;;;15.70;64.50;;;;;;5022195;28;43497;-73
2024/01/22 03:32:36;;;;;;;0.97;0.97;;;15.70;64.60;;;;;;5021633;28;43431;-74
2024/01/22 03:35:05;;;;;;;1.00;1.00;;;15.70;64.70;;;;;;5022213;28;44094;-74
2024/01/22 03:37:33;;;;;;;1.10;1.10;;;15.80;64.70;;;;;;5010157;28;45822;-74
2024/01/22 03:40:01;;;;;;;1.00;1.00;;;15.90;64.40;;;;;;5016547;28;44052;-72
2024/01/22 03:42:29;;;;;;;1.00;1.00;;;15.80;64.00;;;;;;5023909;28;43502;-73
2024/01/22 03:44:57;;;;;;;1.13;1.13;;;15.90;64.10;;;;;;5018109;28;43823;-72
2024/01/22 03:47:27;;;;;;;0.90;0.90;;;15.80;64.10;;;;;;5016781;28;43682;-72
2024/01/22 03:49:56;;;;;;;0.90;0.90;;;15.80;64.30;;;;;;5026994;28;43504;-72
2024/01/22 03:52:24;;;;;;;1.37;1.37;;;15.80;64.30;;;;;;5015375;28;43402;-73
2024/01/22 03:54:53;;;;;;;1.00;1.00;;;15.80;64.40;;;;;;5021202;28;43494;-73
2024/01/22 03:57:21;;;;;;;0.97;0.97;;;15.80;64.40;;;;;;5018660;28;46142;-73
2024/01/22 03:59:50;;;;;;;1.00;1.00;;;15.80;65.10;;;;;;5015953;28;44920;-72
2024/01/22 04:02:19;;;;;;;1.07;1.07;;;15.80;65.20;;;;;;5011286;28;43413;-73
2024/01/22 04:04:47;;;;;;;1.10;1.10;;;15.80;64.50;;;;;;5022874;28;43514;-72
2024/01/22 04:07:17;;;;;;;1.03;1.03;;;15.70;64.50;;;;;;5017364;28;43615;-72
2024/01/22 04:09:45;;;;;;;1.10;1.10;;;15.70;64.50;;;;;;5040049;28;44959;-72
2024/01/22 04:12:13;;;;;;;1.00;1.00;;;15.80;64.50;;;;;;5024387;28;43479;-73
2024/01/22 04:14:41;;;;;;;0.90;0.90;;;15.80;64.60;;;;;;5022218;28;43594;-72
2024/01/22 04:17:09;;;;;;;1.03;1.03;;;15.80;64.50;;;;;;5020833;28;45718;-72
2024/01/22 04:19:37;;;;;;;1.03;1.03;;;15.80;64.50;;;;;;5019270;28;44363;-76
2024/01/22 04:22:07;;;;;;;0.97;0.97;;;15.80;64.50;;;;;;5018942;28;43436;-76
2024/01/22 04:24:37;;;;;;;1.10;1.10;;;15.80;64.50;;;;;;5022854;28;43412;-76
2024/01/22 04:27:05;;;;;;;1.10;1.10;;;15.80;64.70;;;;;;5014593;28;45618;-76
2024/01/22 04:29:34;;;;;;;1.10;1.10;;;15.80;64.60;;;;;;5015141;28;44448;-77
2024/01/22 04:32:03;;;;;;;0.90;0.90;;;15.90;64.30;;;;;;5012362;28;43443;-76
2024/01/22 04:34:32;;;;;;;1.10;1.10;;;16.00;64.10;;;;;;5021200;28;43343;-76
2024/01/22 04:37:00;;;;;;;0.90;0.90;;;16.00;63.90;;;;;;5017051;28;45959;-78
2024/01/22 04:39:28;;;;;;;1.00;1.00;;;16.00;64.00;;;;;;5055646;22;43448;-70
2024/01/22 04:41:57;;;;;;;0.97;0.97;;;16.00;64.10;;;;;;5047897;28;43426;-70
2024/01/22 04:44:28;;;;;;;0.90;0.90;;;15.90;64.10;;;;;;5048260;28;43812;-70
2024/01/22 04:46:56;;;;;;;1.07;1.07;;;15.90;64.10;;;;;;5047521;28;43608;-70
2024/01/22 04:49:25;;;;;;;1.20;1.20;;;15.90;64.20;;;;;;5047708;28;43507;-70
2024/01/22 04:51:53;;;;;;;0.87;0.87;;;15.90;64.10;;;;;;5046422;28;43498;-70
2024/01/22 04:54:21;;;;;;;0.90;0.90;;;15.90;64.30;;;;;;5046641;28;43580;-70
2024/01/22 04:56:52;;;;;;;1.10;1.10;;;15.90;64.40;;;;;;5047510;28;44024;-70
2024/01/22 04:59:22;;;;;;;1.00;1.00;;;15.90;64.40;;;;;;5047706;28;43995;-70
2024/01/22 05:01:50;;;;;;;1.20;1.20;;;15.80;64.40;;;;;;5046193;28;43471;-70
2024/01/22 05:04:18;;;;;;;0.80;0.80;;;15.80;65.10;;;;;;5047575;28;43495;-70
2024/01/22 05:06:46;;;;;;;1.00;1.00;;;15.80;64.40;;;;;;5047255;28;43943;-70
2024/01/22 05:09:15;;;;;;;1.27;1.27;;;15.80;64.50;;;;;;5047211;28;43634;-70
2024/01/22 05:11:43;;;;;;;0.70;0.70;;;15.80;64.50;;;;;;5044422;28;43494;-70
2024/01/22 05:14:12;;;;;;;0.97;0.97;;;15.80;64.50;;;;;;5064573;28;43452;-70
2024/01/22 05:16:41;;;;;;;0.90;0.90;;;15.80;64.50;;;;;;5050618;28;43642;-70
2024/01/22 05:19:09;;;;;;;1.10;1.10;;;15.80;64.60;;;;;;5049269;28;44808;-70
2024/01/22 05:21:37;;;;;;;0.90;0.90;;;15.80;64.50;;;;;;5050893;28;43443;-70
2024/01/22 05:24:07;;;;;;;1.00;1.00;;;15.80;64.50;;;;;;5049457;28;43482;-70
2024/01/22 05:26:35;;;;;;;1.00;1.00;;;15.80;64.50;;;;;;5050708;28;43774;-70
2024/01/22 05:29:03;;;;;;;1.10;1.10;;;15.80;64.50;;;;;;5050987;28;43471;-70
2024/01/22 05:31:31;;;;;;;0.90;0.90;;;15.80;64.50;;;;;;5076034;28;43993;-69
2024/01/22 05:34:01;;;;;;;0.80;0.80;;;15.80;65.20;;;;;;5070140;28;43426;-69
2024/01/22 05:36:29;;;;;;;1.07;1.07;;;15.80;64.50;;;;;;5063573;28;45793;-69
2024/01/22 05:38:57;;;;;;;0.93;0.93;;;15.80;64.60;;;;;;5075670;28;43493;-69
2024/01/22 05:41:25;;;;;;;0.90;0.90;;;15.90;64.60;;;;;;5075576;28;43384;-68
2024/01/22 05:43:53;;;;;;;0.90;0.90;;;15.90;64.30;;;;;;5076314;28;43506;-68
2024/01/22 05:46:21;;;;;;;0.80;0.80;;;16.00;64.00;;;;;;5076183;28;43841;-69
2024/01/22 05:48:49;;;;;;;0.90;0.90;;;16.00;64.00;;;;;;5076120;28;43410;-69
2024/01/22 05:51:19;;;;;;;1.10;1.10;;;16.00;64.10;;;;;;5076014;28;43336;-68
2024/01/22 05:53:47;;;;;;;0.90;0.90;;;15.90;64.10;;;;;;5074160;28;43522;-69
2024/01/22 05:56:22;;;;;;;1.00;1.00;;;15.90;64.10;;;;;;5070076;28;43631;-69
2024/01/22 05:58:50;;;;;;;0.90;0.90;;;15.90;64.10;;;;;;5069301;28;43653;-69
2024/01/22 06:01:21;;;;;;;1.00;1.00;;;15.90;64.30;;;;;;5074970;28;43620;-69
2024/01/22 06:03:49;;;;;;;1.10;1.10;;;15.90;64.30;;;;;;5076168;28;43902;-69
2024/01/22 06:06:19;;;;;;;1.00;1.00;;;15.90;64.40;;;;;;5075668;28;43600;-69
2024/01/22 06:08:49;;;;;;;0.87;0.87;;;15.80;64.40;;;;;;5075408;28;43425;-69
2024/01/22 06:11:18;;;;;;;0.97;0.97;;;15.80;64.50;;;;;;5075558;28;43370;-69
2024/01/22 06:13:46;;;;;;;0.90;0.90;;;15.80;64.50;;;;;;5075516;28;43439;-69
2024/01/22 06:16:28;;;;;;;0.97;0.97;;;15.80;64.70;;;;;;5075754;28;43603;-69
2024/01/22 06:18:56;;;;;;;1.00;1.00;;;15.80;64.40;;;;;;5075163;28;43442;-68
2024/01/22 06:21:26;;;;;;;0.83;0.83;;;15.90;64.40;;;;;;5075270;28;43677;-68
2024/01/22 06:23:54;;;;;;;0.80;0.80;;;15.90;64.40;;;;;;5075818;28;43370;-68
2024/01/22 06:26:23;;;;;;;1.00;1.00;;;15.90;64.50;;;;;;5075397;28;43841;-68
2024/01/22 06:28:52;;;;;;;1.00;1.00;;;15.90;64.50;;;;;;5075409;28;43430;-68
2024/01/22 06:31:20;;;;;;;1.00;1.00;;;15.80;64.50;;;;;;5075199;28;43455;-69
2024/01/22 06:33:49;;;;;;;0.90;0.90;;;15.90;64.60;;;;;;5075749;28;43417;-68
2024/01/22 06:36:17;;;;;;;0.90;0.90;;;15.90;64.60;;;;;;5075453;28;43678;-68
2024/01/22 06:38:46;;;;;;;1.00;1.00;;;15.90;64.60;;;;;;5074398;28;43385;-68
2024/01/22 06:41:15;;;;;;;0.90;0.90;;;15.90;64.60;;;;;;5068817;28;43382;-70
2024/01/22 06:43:43;;;;;;;0.90;0.90;;;15.80;64.50;;;;;;5069062;28;43345;-69
2024/01/22 06:46:12;;;;;;;0.97;0.97;;;15.80;64.50;;;;;;5068920;28;43857;-69
2024/01/22 06:48:40;;;;;;;0.90;0.90;;;15.80;64.50;;;;;;5068416;28;43407;-69
2024/01/22 06:51:11;;;;;;;0.97;0.97;;;15.80;64.60;;;;;;5069442;28;43465;-69
2024/01/22 06:53:39;;;;;;;0.80;0.80;;;15.90;64.60;;;;;;5067233;28;43472;-70
2024/01/22 06:56:09;;;;;;;0.90;0.90;;;16.00;64.30;;;;;;5067696;28;46380;-70
2024/01/22 06:58:37;;;;;;;0.90;0.90;;;16.00;64.10;;;;;;5068832;28;43416;-70
2024/01/22 07:01:07;;;;;;;0.90;0.90;;;16.00;64.20;;;;;;5068699;28;43390;-70
2024/01/22 07:03:36;;;;;;;1.10;1.10;;;16.00;64.20;;;;;;5069050;28;43408;-70
2024/01/22 07:06:05;;;;;;;0.90;0.90;;;16.00;64.20;;;;;;5066459;28;43978;-70
2024/01/22 07:08:33;;;;;;;1.00;1.00;;;16.00;64.40;;;;;;5068219;28;43339;-70
2024/01/22 07:11:01;;;;;;;1.00;1.00;;;15.90;64.10;;;;;;5068002;28;43364;-70
2024/01/22 07:13:32;;;;;;;1.00;1.00;;;15.90;64.30;;;;;;5066603;28;43426;-70
2024/01/22 07:16:00;;;;;;;0.83;0.83;;;15.90;64.30;;;;;;5062336;28;43972;-70
2024/01/22 07:18:31;;;;;;;1.00;1.00;;;15.90;64.40;;;;;;5062328;28;43423;-69
2024/01/22 07:21:00;;;;;;;0.90;0.90;;;15.90;64.50;;;;;;5067925;28;43396;-70
2024/01/22 07:23:28;;;;;;;0.80;0.80;;;15.90;64.60;;;;;;5067716;28;43482;-69
2024/01/22 07:25:56;;;;;;;0.90;0.90;;;15.90;64.60;;;;;;5068270;28;43595;-70
2024/01/22 07:28:24;;;;;;;0.90;0.90;;;15.90;64.70;;;;;;5067451;28;43356;-70
2024/01/22 07:30:54;;;;;;;1.03;1.03;;;15.90;64.30;;;;;;5067454;28;43489;-69
2024/01/22 07:33:22;;;;;;;1.00;1.00;;;16.00;64.10;;;;;;5068230;28;43416;-69
2024/01/22 07:35:50;;;;;;;0.73;0.73;;;16.00;64.10;;;;;;5067220;28;43869;-69
2024/01/22 07:38:18;;;;;;;0.90;0.90;;;16.00;64.20;;;;;;5067806;28;43479;-69
2024/01/22 07:40:46;;;;;;;0.97;0.97;;;16.00;64.20;;;;;;5067436;28;43800;-70
2024/01/22 07:43:14;;;;;;;0.90;0.90;;;16.00;64.20;;;;;;5068262;28;43430;-69
2024/01/22 07:45:42;;;;;;;0.97;0.97;;;16.00;64.30;;;;;;5069114;28;45516;-69
2024/01/22 07:48:11;;;;;;;1.00;1.00;;;16.00;64.20;;;;;;5071687;28;43429;-69
2024/01/22 07:50:40;;;;;;;0.80;0.80;;;16.00;64.30;;;;;;5074476;28;43489;-69
2024/01/22 07:53:08;;;;;;;0.80;0.80;;;15.90;64.30;;;;;;5081705;28;43432;-69
2024/01/22 07:55:37;;;;;;;0.80;0.80;;;15.90;64.40;;;;;;5077764;28;43744;-69
2024/01/22 07:58:05;;;;;;;0.90;0.90;;;15.90;64.40;;;;;;5075008;28;43382;-69
2024/01/22 08:00:34;;;;;;;1.00;1.00;;;15.90;64.50;;;;;;5074820;28;43451;-68
2024/01/22 08:03:02;;;;;;;1.00;1.00;;;15.90;64.50;;;;;;5075228;28;43790;-68
2024/01/22 08:05:31;;;;;;;0.97;0.97;;;15.90;64.50;;;;;;5073287;28;43861;-69
2024/01/22 08:07:59;;;;;;;1.00;1.00;;;15.90;64.50;;;;;;5075080;28;43426;-71
2024/01/22 08:10:27;;;;;;;0.90;0.90;;;15.90;64.50;;;;;;5074824;28;43565;-68
2024/01/22 08:12:55;;;;;;;0.90;0.90;;;15.90;64.50;;;;;;5079617;28;43375;-68
2024/01/22 08:15:23;;;;;;;1.00;1.00;;;15.90;64.60;;;;;;5075703;28;43619;-69
2024/01/22 08:17:51;;;;;;;1.10;1.10;;;15.90;64.60;;;;;;5075726;28;43427;-69
2024/01/22 08:20:20;;;;;;;1.00;1.00;;;15.90;64.70;;;;;;5073870;28;43458;-69
2024/01/22 08:22:49;;;;;;;1.00;1.00;;;15.90;65.40;;;;;;5073157;28;43416;-69
2024/01/22 08:25:26;;;;;;;1.00;1.00;;;16.00;64.50;;;;;;5073457;28;43829;-69
2024/01/22 08:27:55;;;;;;;1.00;1.00;;;16.10;64.30;;;;;;5073499;28;43414;-69
2024/01/22 08:30:23;;;;;;;0.90;0.90;;;16.10;64.00;;;;;;5073539;28;43395;-68
2024/01/22 08:32:52;;;;;;;0.93;0.93;;;16.10;64.90;;;;;;5073897;28;43829;-68
2024/01/22 08:35:20;;;;;;;1.10;1.10;;;16.00;64.20;;;;;;5073143;28;43933;-68
2024/01/22 08:37:52;;;;;;;1.00;1.00;;;16.00;64.20;;;;;;5073443;28;43956;-69
2024/01/22 08:40:22;;;;;;;0.90;0.90;;;16.00;65.00;;;;;;5072906;28;43416;-68
2024/01/22 08:42:50;;;;;;;1.00;1.00;;;16.00;64.20;;;;;;5073644;28;43415;-69
2024/01/22 08:45:18;;;;;;;1.07;1.07;;;16.00;64.40;;;;;;5073129;28;43844;-69
2024/01/22 08:47:47;;;;;;;0.90;0.90;;;16.00;64.50;;;;;;5071420;28;44969;-68
2024/01/22 08:50:17;;;;;;;0.80;0.80;;;15.90;64.40;;;;;;5073447;28;43339;-69
2024/01/22 08:52:46;;;;;;;1.70;1.10;;;15.90;64.40;;;;;;5073896;28;43388;-68
2024/01/22 08:55:18;;;;;;;1.00;1.00;;;15.90;64.60;;;;;;5072200;28;45790;-69
2024/01/22 08:57:46;;;;;;;1.00;1.00;;;15.90;64.40;;;;;;5073065;28;43479;-68
2024/01/22 09:00:14;;;;;;;1.00;1.00;;;15.90;64.50;;;;;;5057914;28;43445;-70
2024/01/22 09:02:43;;;;;;;1.13;1.03;;;16.00;64.60;;;;;;5047887;28;43466;-70
2024/01/22 09:05:14;;;;;;;1.57;1.10;;;15.90;64.60;;;;;;5047603;28;43866;-70
2024/01/22 09:07:42;;;;;;;1.00;1.00;;;15.90;64.60;;;;;;5047533;28;43471;-70
2024/01/22 09:10:11;;;;;;;2.27;1.10;;;15.90;64.70;;;;;;5047969;28;43427;-70
2024/01/22 09:12:41;;;;;;;0.93;0.90;;;15.90;64.70;;;;;;5046045;28;43646;-70
2024/01/22 09:15:10;;;;;;;0.90;0.90;;;15.90;64.90;;;;;;5045414;28;43624;-70
2024/01/22 09:17:38;;;;;;;1.07;1.00;;;16.00;64.80;;;;;;5041590;28;43509;-69
2024/01/22 09:20:08;;;;;;;1.00;1.00;;;16.10;64.30;;;;;;5047556;28;43361;-69
2024/01/22 09:22:36;;;;;;;1.17;1.17;;;16.10;64.10;;;;;;5041823;28;43404;-69
2024/01/22 09:25:05;;;;;;;0.90;0.90;;;16.10;64.10;;;;;;5041564;28;43600;-70
2024/01/22 09:27:33;;;;;;;0.97;0.97;;;16.10;64.30;;;;;;5047581;28;43499;-70
2024/01/22 09:30:03;;;;;;;1.00;1.00;;;16.10;64.30;;;;;;5047318;28;43434;-69
2024/01/22 09:32:31;;;;;;;1.10;1.10;;;16.00;64.40;;;;;;5048194;28;43464;-70
2024/01/22 09:34:59;;;;;;;0.90;0.90;;;16.00;64.30;;;;;;5046797;28;43576;-70
2024/01/22 09:37:27;;;;;;;1.07;1.00;;;16.00;64.40;;;;;;5047288;28;43651;-70
2024/01/22 09:39:55;;;;;;;0.93;0.93;;;16.00;64.50;;;;;;5047148;28;43862;-70
2024/01/22 09:42:24;;;;;;;1.00;1.00;;;16.00;64.60;;;;;;5047965;28;43463;-70
2024/01/22 09:44:52;;;;;;;0.97;0.97;;;16.00;64.70;;;;;;5046581;28;44855;-70
2024/01/22 09:47:22;;;;;;;1.00;1.00;;;15.90;64.70;;;;;;5047290;28;43457;-70
2024/01/22 09:49:50;;;;;;;1.13;1.13;;;16.00;64.90;;;;;;5047214;28;43344;-70
2024/01/22 09:52:18;;;;;;;1.10;1.10;;;15.90;64.80;;;;;;5047718;28;44007;-70
2024/01/22 09:54:46;;;;;;;1.00;1.00;;;15.90;64.80;;;;;;5046508;28;43599;-70
2024/01/22 09:57:17;;;;;;;1.00;1.00;;;15.90;64.80;;;;;;5047102;28;43384;-70
2024/01/22 09:59:45;;;;;;;1.07;1.07;;;15.90;64.90;;;;;;5050111;28;43961;-70
2024/01/22 10:02:15;;;;;;;1.20;1.20;;;16.00;65.10;;;;;;5049049;28;43487;-70
2024/01/22 10:04:45;;;;;;;1.10;1.10;;;15.90;65.10;;;;;;5045176;28;43615;-70
2024/01/22 10:07:14;;;;;;;1.20;1.20;;;15.90;65.60;;;;;;5049881;28;43436;-70
2024/01/22 10:09:42;;;;;;;0.97;0.97;;;16.00;65.60;;;;;;5055026;28;43492;-69
2024/01/22 10:12:10;;;;;;;1.10;1.10;;;16.10;65.20;;;;;;5076245;28;43380;-69
2024/01/22 10:14:40;;;;;;;1.00;1.00;;;16.10;64.70;;;;;;5074901;28;43874;-69
2024/01/22 10:17:17;;;;;;;1.10;1.10;;;16.10;64.50;;;;;;5075832;28;43425;-69
2024/01/22 10:19:47;;;;;;;1.10;1.10;;;16.10;64.60;;;;;;5075901;28;43393;-68
2024/01/22 10:22:18;;;;;;;0.90;0.90;;;16.10;64.70;;;;;;5075357;28;43394;-69
2024/01/22 10:24:57;;;;;;;1.10;1.00;;;16.10;65.10;;;;;;5075477;28;43880;-69
2024/01/22 10:27:25;;;;;;;1.10;1.10;;;16.10;64.90;;;;;;5075678;28;43388;-70
2024/01/22 10:29:54;;;;;;;1.20;1.20;;;16.10;65.00;;;;;;5075640;28;43372;-70
2024/01/22 10:32:22;;;;;;;0.90;0.90;;;16.00;65.00;;;;;;5075921;28;43418;-69
2024/01/22 10:34:53;;;;;;;1.10;1.10;;;16.00;65.00;;;;;;5075517;28;43600;-69
2024/01/22 10:37:21;;;;;;;1.20;1.20;;;16.00;65.10;;;;;;5069366;28;43428;-69
2024/01/22 10:39:51;;;;;;;1.40;1.30;;;16.00;65.10;;;;;;5074505;28;43496;-69
2024/01/22 10:42:19;;;;;;;1.20;1.20;;;16.00;65.50;;;;;;5071696;28;43371;-69
2024/01/22 10:44:47;;;;;;;1.30;1.20;;;16.00;65.20;;;;;;5075401;28;43618;-70
2024/01/22 10:47:16;;;;;;;1.20;1.20;;;16.00;65.30;;;;;;5075237;28;43420;-70
2024/01/22 10:49:46;;;;;;;1.30;1.20;;;16.00;65.30;;;;;;5075464;28;43486;-70
2024/01/22 10:52:19;;;;;;;1.50;1.40;;;16.00;65.40;;;;;;5075602;28;43427;-69
2024/01/22 10:54:47;;;;;;;1.20;1.20;;;16.00;65.40;;;;;;5075025;28;43815;-69
2024/01/22 10:57:16;;;;;;;1.70;1.60;;;16.00;65.40;;;;;;5075137;28;43426;-69
2024/01/22 10:59:48;;;;;;;3.63;2.00;;;16.00;65.80;;;;;;5075074;28;43413;-69
2024/01/22 11:02:18;;;;;;;2.13;1.77;;;16.00;65.80;;;;;;5075332;28;43484;-69
2024/01/22 11:04:47;;;;;;;2.47;1.70;;;16.10;65.50;;;;;;5073427;28;45335;-68
2024/01/22 11:07:15;;;;;;;1.80;1.70;;;16.20;65.10;;;;;;5074724;28;43402;-68
2024/01/22 11:09:44;;;;;;;1.70;1.60;;;16.20;64.90;;;;;;5073724;28;43415;-68
2024/01/22 11:12:13;;;;;;;2.87;2.20;;;16.20;65.00;;;;;;5075036;28;43483;-68
2024/01/22 11:14:41;;;;;;;6.30;2.00;;;16.20;65.40;;;;;;5073802;28;46187;-68
2024/01/22 11:17:10;;;;;;;3.70;2.00;;;16.20;65.70;;;;;;5074752;28;43403;-68
2024/01/22 11:19:38;;;;;;;2.07;1.63;;;16.20;65.70;;;;;;5074603;28;43423;-69
2024/01/22 11:22:07;;;;;;;1.90;1.70;;;16.20;65.60;;;;;;5075075;28;43533;-69
2024/01/22 11:24:36;;;;;;;2.10;1.90;;;16.10;66.20;;;;;;5074278;28;43767;-68
2024/01/22 11:27:06;;;;;;;1.83;1.73;;;16.10;65.40;;;;;;5074509;28;43439;-68
2024/01/22 11:29:35;;;;;;;2.67;1.90;;;16.10;65.50;;;;;;5074111;28;43415;-68
2024/01/22 11:32:26;;;;;;;3.87;2.53;;;16.10;65.60;;;;;;5074820;28;43380;-68
2024/01/22 11:34:57;;;;;;;4.83;2.07;;;16.10;66.60;;;;;;5072814;28;43682;-68
2024/01/22 11:37:36;;;;;;;4.03;1.97;;;16.10;65.70;;;;;;5074608;28;43424;-68
2024/01/22 11:40:07;;;;;;;2.30;2.03;;;16.10;65.70;;;;;;5070390;28;43413;-70
2024/01/22 11:42:38;;;;;;;2.13;1.90;;;16.10;65.80;;;;;;5074713;28;43495;-69
2024/01/22 11:45:13;;;;;;;3.43;2.10;;;16.10;66.00;;;;;;5073395;28;43934;-68
2024/01/22 11:47:42;;;;;;;4.07;2.40;;;16.10;66.20;;;;;;5074275;28;43383;-69
2024/01/22 11:50:11;;;;;;;2.63;2.30;;;16.00;66.00;;;;;;5071403;28;43335;-69
2024/01/22 11:52:39;;;;;;;2.67;2.40;;;16.00;66.20;;;;;;5074712;28;43453;-69
2024/01/22 11:55:08;;;;;;;2.70;2.20;;;16.10;66.30;;;;;;5073867;28;43607;-69
2024/01/22 11:57:38;;;;;;;2.50;2.20;;;16.20;66.00;;;;;;5077300;28;43434;-69
2024/01/22 12:00:10;;;;;;;4.63;2.00;;;16.20;65.50;;;;;;5076214;28;43503;-69
2024/01/22 12:02:39;;;;;;;2.93;2.00;;;16.20;65.50;;;;;;5077594;28;44371;-69
2024/01/22 12:05:09;;;;;;;3.17;2.20;;;16.20;65.60;;;;;;5058562;22;44766;-72
2024/01/22 12:07:39;;;;;;;4.30;2.30;;;16.20;65.70;;;;;;5020139;28;44600;-72
2024/01/22 12:10:18;;;;;;;2.83;2.27;;;16.20;66.10;;;;;;5018514;28;43413;-72
2024/01/22 12:12:51;;;;;;;3.40;2.20;;;16.20;65.90;;;;;;5039783;28;43543;-73
2024/01/22 12:15:20;;;;;;;3.23;2.20;;;16.20;65.90;;;;;;5009452;28;43858;-72
2024/01/22 12:17:48;;;;;;;2.50;2.00;;;16.20;65.90;;;;;;5027256;28;43477;-72
2024/01/22 12:20:18;;;;;;;2.13;2.00;;;16.20;66.10;;;;;;5027488;28;43451;-72
2024/01/22 12:22:46;;;;;;;2.07;1.90;;;16.20;66.00;;;;;;5009250;28;43506;-73
2024/01/22 12:25:15;;;;;;;3.67;2.40;;;16.10;66.10;;;;;;5009279;28;45906;-74
2024/01/22 12:27:43;;;;;;;2.23;2.03;;;16.10;66.40;;;;;;5036443;28;43658;-73
2024/01/22 12:30:14;;;;;;;3.47;2.13;;;16.10;66.20;;;;;;5033564;28;43436;-74
2024/01/22 12:32:52;;;;;;;1.97;1.87;;;16.20;66.30;;;;;;5036116;28;43413;-72
2024/01/22 12:35:22;;;;;;;2.00;1.90;;;16.10;66.10;;;;;;5035312;28;43852;-72
2024/01/22 12:37:51;;;;;;;2.27;2.10;;;16.10;66.10;;;;;;5015927;28;45131;-72
2024/01/22 12:40:20;;;;;;;2.13;1.90;;;16.10;66.20;;;;;;5034258;28;43426;-72
2024/01/22 12:42:49;;;;;;;1.97;1.87;;;16.10;66.40;;;;;;5028326;28;43461;-73
2024/01/22 12:45:20;;;;;;;2.10;2.00;;;16.10;66.70;;;;;;5032353;28;43951;-72
2024/01/22 12:47:49;;;;;;;3.87;1.97;;;16.10;66.70;;;;;;5026876;28;43881;-72
2024/01/22 12:50:18;;;;;;;1.90;1.80;;;16.20;66.40;;;;;;5027066;28;43395;-72
2024/01/22 12:52:47;;;;;;;1.80;1.70;;;16.30;66.10;;;;;;5027634;28;43432;-73
2024/01/22 12:55:15;;;;;;;1.97;1.87;;;16.30;65.80;;;;;;5008968;28;45801;-73
2024/01/22 12:57:44;;;;;;;2.07;1.97;;;16.30;65.90;;;;;;5012943;28;43586;-74